Hope, Michigan
Current Conditions -  °F | °C
As of 8:15 PM on Friday 28 Nov 2014 (Local Time) from KIKW Reporting Station
Light Snow Light Snow  
Wind Chill: 19°   Ceiling: 1400
Heat Index: 26°   Visibility: 2mi
Dew Point: 22°   Wind: 6mph
Humidity: 88%   Direction: 140°SE
Pressure: 30.09"   Gusts: NA
Location:  43.76°N, 84.34°W
Report Text: KIKW 290115Z AUTO 14005KT 2SM -SN OVC014 M03/M05 A3009 RMK AO2 T10351053
Loading
Personal Weather Stations






























Interactive Weather Map New forecast layout! Learn more

10-Day Weather Forecast

Advertisements
Track Severe Weather on mobile